Time;durP1;ratioP1;P1;durP2;ratioP2;P2;SDS_P1;SDS_P2;PMS_P1;PMS_P2;Temp;Humidity;BMP_temperature;BMP_pressure;BME280_temperature;BME280_humidity;BME280_pressure;Samples;Min_cycle;Max_cycle;Signal;HPM_P1;HPM_P2
2023/12/23 00:02:24;;;;;;;2.28;1.50;;;;;;;3.41;77.51;97227.97;5106330;28;20378;-70
2023/12/23 00:04:51;;;;;;;2.92;1.60;;;;;;;3.64;77.35;97271.13;5106342;28;20047;-70
2023/12/23 00:07:19;;;;;;;3.05;1.70;;;;;;;3.64;77.44;97274.56;5106494;28;20047;-70
2023/12/23 00:09:46;;;;;;;2.63;1.50;;;;;;;3.62;77.27;97276.44;5106710;28;20044;-70
2023/12/23 00:12:12;;;;;;;2.50;1.50;;;;;;;3.62;77.31;97307.03;5105298;28;20047;-69
2023/12/23 00:14:39;;;;;;;2.35;1.50;;;;;;;3.50;77.33;97291.13;5106557;28;20197;-69
2023/12/23 00:17:06;;;;;;;2.10;1.50;;;;;;;3.51;77.23;97316.38;5105910;28;20036;-70
2023/12/23 00:19:32;;;;;;;2.50;1.50;;;;;;;3.52;76.93;97311.97;5106605;28;20284;-70
2023/12/23 00:21:59;;;;;;;4.20;1.65;;;;;;;3.52;76.93;97296.28;5106310;28;20052;-69
2023/12/23 00:24:29;;;;;;;2.67;1.67;;;;;;;3.33;76.83;97266.88;5106554;28;20083;-69
2023/12/23 00:26:57;;;;;;;2.42;1.58;;;;;;;2.96;77.00;97187.91;5106262;28;20107;-69
2023/12/23 00:29:24;;;;;;;2.67;1.67;;;;;;;3.45;76.95;97253.88;5105024;28;20051;-69
2023/12/23 00:31:52;;;;;;;2.40;1.60;;;;;;;3.47;76.71;97288.69;5105685;28;20040;-69
2023/12/23 00:34:19;;;;;;;2.58;1.50;;;;;;;3.48;76.56;97274.66;5105919;28;20101;-69
2023/12/23 00:36:45;;;;;;;2.30;1.50;;;;;;;3.39;76.55;97266.50;5106355;28;20055;-69
2023/12/23 00:39:12;;;;;;;2.40;1.65;;;;;;;3.36;76.77;97280.63;5106235;28;20063;-69
2023/12/23 00:41:41;;;;;;;2.88;1.80;;;;;;;3.39;76.72;97301.38;5106340;28;20051;-69
2023/12/23 00:44:07;;;;;;;2.80;1.60;;;;;;;3.41;76.56;97309.16;5106052;28;20059;-69
2023/12/23 00:46:34;;;;;;;2.38;1.75;;;;;;;3.39;76.56;97308.41;5106004;28;20052;-69
2023/12/23 00:49:01;;;;;;;2.95;1.80;;;;;;;3.39;76.58;97301.38;5105915;28;20040;-69
2023/12/23 00:51:27;;;;;;;2.92;1.80;;;;;;;3.37;76.59;97308.50;5106014;28;20216;-69
2023/12/23 00:53:54;;;;;;;2.50;1.50;;;;;;;3.14;76.41;97280.19;5105978;28;20044;-69
2023/12/23 00:56:21;;;;;;;2.40;1.50;;;;;;;3.31;76.73;97365.59;5105712;28;20052;-69
2023/12/23 00:58:50;;;;;;;2.88;1.60;;;;;;;3.33;76.59;97359.34;5105869;28;20047;-69
2023/12/23 01:01:17;;;;;;;2.85;1.70;;;;;;;3.31;76.72;97365.59;5106168;28;20093;-69
2023/12/23 01:03:44;;;;;;;2.40;1.58;;;;;;;3.25;76.68;97358.09;5106218;28;20040;-69
2023/12/23 01:06:10;;;;;;;2.60;1.70;;;;;;;2.43;76.68;97225.00;5106167;28;20107;-69
2023/12/23 01:08:37;;;;;;;2.90;2.15;;;;;;;3.30;76.81;97369.16;5105802;28;20051;-70
2023/12/23 01:11:04;;;;;;;2.45;1.60;;;;;;;2.87;76.98;97309.63;5105829;28;20044;-69
2023/12/23 01:13:31;;;;;;;2.35;1.55;;;;;;;3.20;76.98;97381.94;5106144;28;20297;-69
2023/12/23 01:15:58;;;;;;;2.60;1.60;;;;;;;3.26;76.90;97396.44;5105734;28;20052;-69
2023/12/23 01:18:25;;;;;;;2.55;1.52;;;;;;;3.28;76.69;97392.81;5105357;28;20040;-69
2023/12/23 01:20:52;;;;;;;2.25;1.60;;;;;;;3.22;77.01;97395.78;5105436;28;20304;-69
2023/12/23 01:23:18;;;;;;;2.40;1.58;;;;;;;3.11;77.13;97400.78;5105748;28;20044;-69
2023/12/23 01:25:45;;;;;;;2.80;1.70;;;;;;;3.17;77.18;97405.66;5105713;28;20044;-70
2023/12/23 01:28:12;;;;;;;2.50;1.70;;;;;;;3.16;77.07;97398.75;5105403;28;20044;-69
2023/12/23 01:30:39;;;;;;;2.65;1.60;;;;;;;3.20;77.10;97410.72;5105976;28;20048;-70
2023/12/23 01:33:07;;;;;;;2.42;1.65;;;;;;;3.11;77.27;97416.47;5105398;28;20246;-69
2023/12/23 01:35:34;;;;;;;2.50;1.80;;;;;;;3.09;77.37;97407.88;5105355;28;20062;-69
2023/12/23 01:38:01;;;;;;;2.75;1.70;;;;;;;3.12;77.31;97403.31;5105476;28;20036;-70
2023/12/23 01:40:27;;;;;;;3.22;2.50;;;;;;;3.07;77.90;97392.25;5105291;28;20254;-69
2023/12/23 01:42:54;;;;;;;2.92;1.88;;;;;;;2.34;77.36;97288.25;5105740;28;20052;-69
2023/12/23 01:45:21;;;;;;;2.10;1.50;;;;;;;3.04;78.07;97405.50;5110127;28;20054;-69
2023/12/23 01:47:49;;;;;;;2.45;1.50;;;;;;;3.01;78.42;97416.16;5109018;28;20047;-69
2023/12/23 01:50:21;;;;;;;2.15;1.40;;;;;;;2.98;78.72;97407.63;5109528;28;20188;-69
2023/12/23 01:52:50;;;;;;;2.40;1.48;;;;;;;3.01;78.31;97423.16;5108972;28;20040;-69
2023/12/23 01:55:18;;;;;;;2.50;1.40;;;;;;;2.93;78.72;97418.34;5109210;28;20040;-69
2023/12/23 01:57:45;;;;;;;2.10;1.33;;;;;;;2.88;78.83;97413.34;5108661;28;20052;-70
2023/12/23 02:00:12;;;;;;;2.63;1.40;;;;;;;2.92;78.97;97424.50;5109106;28;20035;-69
2023/12/23 02:02:40;;;;;;;2.22;1.40;;;;;;;2.87;79.06;97416.91;5108754;28;20212;-69
2023/12/23 02:05:06;;;;;;;2.40;1.50;;;;;;;2.95;78.78;97419.09;5109253;28;20040;-69
2023/12/23 02:07:34;;;;;;;2.30;1.73;;;;;;;2.95;79.26;97426.09;5108621;28;20389;-69
2023/12/23 02:10:01;;;;;;;2.63;1.40;;;;;;;2.98;78.83;97425.94;5109152;28;20059;-69
2023/12/23 02:12:35;;;;;;;2.47;1.67;;;;;;;2.94;78.88;97404.31;5107703;28;20040;-69
2023/12/23 02:15:06;;;;;;;2.40;1.70;;;;;;;3.00;78.79;97437.16;5108533;28;20056;-69
2023/12/23 02:17:32;;;;;;;2.65;1.55;;;;;;;2.97;78.76;97445.19;5108659;28;20036;-69
2023/12/23 02:19:59;;;;;;;2.58;1.60;;;;;;;2.94;78.95;97433.13;5108487;28;20050;-69
2023/12/23 02:22:27;;;;;;;2.20;1.45;;;;;;;3.03;78.50;97461.41;5108349;28;20052;-69
2023/12/23 02:24:54;;;;;;;3.35;1.60;;;;;;;2.94;79.00;97450.59;5108557;28;20040;-69
2023/12/23 02:27:27;;;;;;;2.40;1.67;;;;;;;2.96;79.31;97459.19;5108260;28;20036;-69
2023/12/23 02:29:54;;;;;;;2.55;1.85;;;;;;;2.76;79.03;97419.25;5108487;28;20044;-69
2023/12/23 02:32:23;;;;;;;2.22;1.50;;;;;;;2.99;79.19;97472.13;5108192;28;20044;-69
2023/12/23 02:34:50;;;;;;;2.17;1.40;;;;;;;2.92;79.53;97436.75;5108693;28;20044;-69
2023/12/23 02:37:17;;;;;;;2.28;1.50;;;;;;;2.98;79.26;97459.94;5108672;28;20048;-69
2023/12/23 02:39:45;;;;;;;2.40;1.50;;;;;;;2.99;79.37;97464.25;5108251;28;20292;-69
2023/12/23 02:42:12;;;;;;;2.20;1.50;;;;;;;3.00;78.76;97473.81;5108256;28;20082;-69
2023/12/23 02:44:38;;;;;;;2.15;1.40;;;;;;;3.08;78.92;97466.38;5108239;28;20093;-69
2023/12/23 02:47:05;;;;;;;2.40;1.58;;;;;;;3.12;78.56;97487.06;5108442;28;20044;-69
2023/12/23 02:49:32;;;;;;;2.10;1.30;;;;;;;3.04;79.45;97459.63;5108059;28;20284;-69
2023/12/23 02:51:58;;;;;;;2.10;1.42;;;;;;;3.07;78.78;97485.63;5108073;28;20052;-69
2023/12/23 02:54:25;;;;;;;2.63;1.92;;;;;;;3.10;78.94;97473.22;5108198;28;20043;-69
2023/12/23 02:56:53;;;;;;;2.50;1.40;;;;;;;3.07;79.38;97451.59;5107700;28;20121;-70
2023/12/23 02:59:20;;;;;;;2.20;1.55;;;;;;;3.11;79.03;97471.44;5107457;28;20040;-69
2023/12/23 03:01:46;;;;;;;2.17;1.40;;;;;;;3.12;78.79;97467.91;5107929;28;20043;-69
2023/12/23 03:04:13;;;;;;;2.17;1.40;;;;;;;2.80;78.85;97383.31;5107519;28;20036;-69
2023/12/23 03:06:39;;;;;;;2.30;1.50;;;;;;;3.14;79.21;97445.09;5107773;28;20052;-70
2023/12/23 03:09:06;;;;;;;2.30;1.65;;;;;;;3.16;79.25;97453.72;5107506;28;20085;-70
2023/12/23 03:11:33;;;;;;;2.20;1.48;;;;;;;3.15;79.42;97439.78;5107750;28;20238;-69
2023/12/23 03:14:01;;;;;;;2.15;1.40;;;;;;;3.17;78.84;97426.59;5107341;28;20105;-69
2023/12/23 03:16:33;;;;;;;2.25;1.40;;;;;;;3.19;78.30;97425.59;5107607;28;20081;-69
2023/12/23 03:19:00;;;;;;;2.30;1.50;;;;;;;3.00;78.65;97395.28;5107443;28;20046;-69
2023/12/23 03:21:27;;;;;;;2.00;1.30;;;;;;;2.14;78.83;97253.59;5107831;28;20051;-68
2023/12/23 03:23:53;;;;;;;2.20;1.40;;;;;;;2.98;79.07;97390.16;5107510;28;20200;-69
2023/12/23 03:26:20;;;;;;;2.00;1.40;;;;;;;3.14;79.56;97414.53;5107711;28;20048;-70
2023/12/23 03:28:47;;;;;;;2.40;1.42;;;;;;;2.39;78.97;97281.84;5106307;28;20039;-70
2023/12/23 03:31:15;;;;;;;2.00;1.40;;;;;;;3.17;79.63;97423.97;5106214;28;20039;-69
2023/12/23 03:33:42;;;;;;;3.63;1.73;;;;;;;2.81;78.63;97349.22;5107164;28;20052;-70
2023/12/23 03:36:09;;;;;;;2.47;1.60;;;;;;;3.29;78.94;97410.19;5106078;28;20078;-69
2023/12/23 03:38:35;;;;;;;2.40;1.50;;;;;;;3.26;79.54;97420.00;5107098;28;20082;-69
2023/12/23 03:41:02;;;;;;;2.00;1.40;;;;;;;3.29;79.64;97422.44;5107143;28;20085;-69
2023/12/23 03:43:28;;;;;;;2.85;1.50;;;;;;;3.06;79.89;97395.78;5107639;28;20185;-70
2023/12/23 03:45:54;;;;;;;2.92;1.80;;;;;;;3.21;80.02;97449.06;5107000;28;20044;-69
2023/12/23 03:48:22;;;;;;;2.47;1.70;;;;;;;3.25;80.04;97428.78;5106941;28;20059;-69
2023/12/23 03:50:49;;;;;;;2.42;1.88;;;;;;;3.14;79.58;97417.16;5106922;28;20051;-69
2023/12/23 03:53:15;;;;;;;2.20;1.50;;;;;;;3.22;79.80;97434.19;5106926;28;20044;-69
2023/12/23 03:55:42;;;;;;;2.40;1.50;;;;;;;3.24;79.63;97437.56;5107128;28;20292;-68
2023/12/23 03:58:09;;;;;;;2.10;1.30;;;;;;;3.31;79.53;97439.75;5106308;28;20051;-68
2023/12/23 04:00:35;;;;;;;2.30;1.58;;;;;;;3.39;79.34;97442.78;5106478;28;20311;-69
2023/12/23 04:03:02;;;;;;;2.30;1.50;;;;;;;3.36;79.65;97437.72;5106767;28;20050;-69
2023/12/23 04:05:30;;;;;;;2.40;1.40;;;;;;;3.25;79.61;97413.09;5106384;28;20089;-69
2023/12/23 04:07:57;;;;;;;2.25;1.48;;;;;;;3.41;79.67;97433.06;5106408;28;20055;-69
2023/12/23 04:10:23;;;;;;;2.10;1.52;;;;;;;3.46;79.66;97454.59;5106320;28;20048;-69
2023/12/23 04:12:51;;;;;;;2.10;1.35;;;;;;;3.48;80.04;97452.75;5106287;28;20058;-69
2023/12/23 04:15:18;;;;;;;2.10;1.50;;;;;;;3.52;80.12;97466.50;5106293;28;20200;-69
2023/12/23 04:17:44;;;;;;;2.20;1.40;;;;;;;3.55;80.07;97465.50;5106469;28;20085;-69
2023/12/23 04:20:12;;;;;;;2.20;1.55;;;;;;;3.61;79.82;97488.72;5106067;28;20050;-69
2023/12/23 04:22:40;;;;;;;2.35;1.50;;;;;;;3.67;nan;97499.69;5106249;28;20043;-69
2023/12/23 04:25:07;;;;;;;2.10;1.40;;;;;;;3.68;79.94;97535.44;5106354;28;20048;-69
2023/12/23 04:27:34;;;;;;;2.22;1.40;;;;;;;2.65;80.12;97387.63;5106011;28;20044;-69
2023/12/23 04:30:00;;;;;;;2.20;1.40;;;;;;;3.70;80.78;97551.06;5106008;28;20111;-69
2023/12/23 04:32:27;;;;;;;2.00;1.50;;;;;;;3.72;80.36;97573.63;5105981;28;20074;-68
2023/12/23 04:34:55;;;;;;;3.00;2.05;;;;;;;3.65;80.11;97589.78;5106230;28;20044;-69
2023/12/23 04:37:21;;;;;;;2.28;1.50;;;;;;;3.50;80.50;97607.19;5105898;28;20044;-69
2023/12/23 04:39:49;;;;;;;2.85;1.55;;;;;;;3.48;79.61;97595.94;5106066;28;20051;-69
2023/12/23 04:42:16;;;;;;;2.30;1.45;;;;;;;3.50;79.22;97622.91;5106083;28;20043;-69
2023/12/23 04:44:43;;;;;;;2.20;1.40;;;;;;;3.41;79.27;97626.88;5106347;28;20063;-69
2023/12/23 04:47:09;;;;;;;2.30;1.40;;;;;;;3.33;78.98;97605.47;5105796;28;20097;-69
2023/12/23 04:49:36;;;;;;;2.15;1.45;;;;;;;3.36;78.83;97621.03;5105990;28;20051;-68
2023/12/23 04:52:03;;;;;;;2.20;1.48;;;;;;;3.01;78.86;97630.75;5106017;28;20063;-69
2023/12/23 04:54:29;;;;;;;2.20;1.40;;;;;;;3.29;78.59;97677.25;5105634;28;20059;-69
2023/12/23 04:56:57;;;;;;;2.20;1.40;;;;;;;3.10;78.75;97700.94;5105749;28;20060;-69
2023/12/23 04:59:24;;;;;;;2.10;1.33;;;;;;;3.09;78.73;97695.78;5105797;28;20098;-69
2023/12/23 05:01:51;;;;;;;2.28;1.40;;;;;;;2.29;78.62;97594.34;5105576;28;20075;-69
2023/12/23 05:04:18;;;;;;;2.30;1.40;;;;;;;2.79;79.21;97674.63;5105877;28;20040;-69
2023/12/23 05:06:44;;;;;;;2.20;1.30;;;;;;;2.78;78.73;97686.03;5105568;28;20044;-69
2023/12/23 05:09:11;;;;;;;2.58;1.50;;;;;;;2.73;78.39;97688.88;5106110;28;20170;-69
2023/12/23 05:11:38;;;;;;;2.20;1.50;;;;;;;2.65;78.65;97692.78;5105863;28;20044;-69
2023/12/23 05:14:06;;;;;;;2.40;1.50;;;;;;;2.69;78.37;97710.03;5105787;28;20207;-69
2023/12/23 05:16:32;;;;;;;2.05;1.40;;;;;;;2.64;78.02;97714.63;5106076;28;20048;-69
2023/12/23 05:18:59;;;;;;;2.20;1.52;;;;;;;2.67;77.98;97715.34;5108113;28;20225;-69
2023/12/23 05:21:26;;;;;;;2.20;1.40;;;;;;;2.70;78.03;97732.66;5109586;28;20341;-69
2023/12/23 05:23:52;;;;;;;2.30;1.77;;;;;;;2.69;77.79;97729.19;5109547;28;20052;-69
2023/12/23 05:26:20;;;;;;;4.20;2.70;;;;;;;2.37;77.49;97696.75;5109699;28;20043;-69
2023/12/23 05:28:47;;;;;;;3.08;1.80;;;;;;;2.77;77.29;97741.88;5109954;28;20044;-69
2023/12/23 05:31:15;;;;;;;2.78;1.70;;;;;;;2.75;77.48;97749.81;5109392;28;20040;-69
2023/12/23 05:33:42;;;;;;;2.40;1.60;;;;;;;2.70;77.09;97761.41;5109584;28;20044;-69
2023/12/23 05:36:09;;;;;;;3.15;1.80;;;;;;;2.40;76.85;97711.44;5108443;28;20047;-69
2023/12/23 05:38:36;;;;;;;2.28;1.55;;;;;;;2.72;76.52;97770.88;5109460;28;20204;-69
2023/12/23 05:41:02;;;;;;;2.78;1.50;;;;;;;2.74;76.64;97779.50;5109511;28;20043;-69
2023/12/23 05:43:29;;;;;;;2.38;1.60;;;;;;;2.77;76.42;97786.34;5109956;28;20044;-69
2023/12/23 05:45:55;;;;;;;2.83;1.65;;;;;;;2.82;76.05;97781.75;5109065;28;20093;-69
2023/12/23 05:48:24;;;;;;;2.40;1.50;;;;;;;2.81;75.96;97796.59;5109038;28;20044;-69
2023/12/23 05:50:50;;;;;;;2.30;1.40;;;;;;;2.81;75.40;97799.22;5109886;28;20129;-68
2023/12/23 05:53:18;;;;;;;2.17;1.55;;;;;;;2.83;75.13;97802.59;5109546;28;20047;-68
2023/12/23 05:55:46;;;;;;;2.20;1.40;;;;;;;2.83;75.18;97826.16;5109193;28;20036;-69
2023/12/23 05:58:12;;;;;;;2.28;1.40;;;;;;;2.89;75.10;97819.78;5108664;28;20060;-68
2023/12/23 06:00:39;;;;;;;2.42;1.40;;;;;;;2.88;75.18;97831.16;5108758;28;20186;-68
2023/12/23 06:03:06;;;;;;;2.30;1.60;;;;;;;2.94;75.10;97827.41;5109037;28;20044;-69
2023/12/23 06:05:34;;;;;;;2.38;1.67;;;;;;;2.87;75.08;97825.09;5108295;28;20074;-69
2023/12/23 06:08:02;;;;;;;2.10;1.42;;;;;;;2.86;74.86;97838.25;5108910;28;20096;-69
2023/12/23 06:10:28;;;;;;;2.05;1.45;;;;;;;2.90;74.95;97852.03;5109314;28;20059;-69
2023/12/23 06:12:55;;;;;;;2.35;1.48;;;;;;;2.88;74.37;97844.25;5108859;28;20040;-69
2023/12/23 06:15:22;;;;;;;3.28;1.40;;;;;;;2.91;74.45;97862.41;5108764;28;20063;-69
2023/12/23 06:17:50;;;;;;;2.65;1.50;;;;;;;2.91;74.44;97869.41;5108668;28;20371;-69
2023/12/23 06:20:17;;;;;;;2.75;1.67;;;;;;;2.92;74.67;97871.13;5108413;28;20112;-68
2023/12/23 06:22:45;;;;;;;2.47;1.50;;;;;;;2.97;74.68;97869.13;5108359;28;20052;-69
2023/12/23 06:25:12;;;;;;;2.40;1.65;;;;;;;2.03;74.58;97736.72;5108578;28;20043;-69
2023/12/23 06:27:39;;;;;;;3.22;1.60;;;;;;;2.97;74.56;97883.06;5108589;28;20097;-68
2023/12/23 06:30:06;;;;;;;2.80;1.77;;;;;;;3.00;74.56;97884.69;5108193;28;20113;-69
2023/12/23 06:32:33;;;;;;;3.28;2.00;;;;;;;2.99;74.84;97893.47;5108195;28;20044;-68
2023/12/23 06:35:00;;;;;;;2.53;1.58;;;;;;;3.03;74.96;97908.94;5108437;28;20085;-69
2023/12/23 06:37:26;;;;;;;2.90;1.67;;;;;;;3.03;74.86;97914.19;5108198;28;20040;-69
2023/12/23 06:39:54;;;;;;;2.28;1.70;;;;;;;3.08;74.61;97914.81;5108269;28;20285;-69
2023/12/23 06:42:21;;;;;;;3.33;2.40;;;;;;;3.09;74.80;97931.34;5108547;28;20040;-69
2023/12/23 06:44:47;;;;;;;3.05;1.90;;;;;;;3.12;74.99;97928.59;5107879;28;20056;-69
2023/12/23 06:47:14;;;;;;;2.40;1.65;;;;;;;3.12;75.39;97945.16;5107823;28;20097;-69
2023/12/23 06:49:41;;;;;;;2.65;1.80;;;;;;;3.15;75.55;97939.78;5108380;28;20093;-69
2023/12/23 06:52:07;;;;;;;3.10;1.80;;;;;;;3.16;75.50;97961.56;5108362;28;20094;-68
2023/12/23 06:54:34;;;;;;;3.03;1.83;;;;;;;3.19;75.64;97975.34;5108029;28;20231;-69
2023/12/23 06:57:02;;;;;;;2.47;1.50;;;;;;;3.23;75.70;97983.91;5107802;28;20101;-69
2023/12/23 06:59:29;;;;;;;2.72;1.70;;;;;;;2.13;76.20;97812.94;5107594;28;20090;-69
2023/12/23 07:01:55;;;;;;;2.30;1.55;;;;;;;3.21;76.81;97967.44;5107785;28;20282;-69
2023/12/23 07:04:22;;;;;;;2.70;1.83;;;;;;;2.83;77.00;97940.44;5107954;28;20043;-69
2023/12/23 07:06:48;;;;;;;2.58;1.60;;;;;;;2.92;76.78;97953.09;5108084;28;20044;-69
2023/12/23 07:09:16;;;;;;;3.80;1.90;;;;;;;3.10;76.89;97993.25;5107671;28;20098;-69
2023/12/23 07:11:43;;;;;;;3.42;1.90;;;;;;;3.07;76.81;97986.41;5107731;28;20040;-69
2023/12/23 07:14:11;;;;;;;2.38;1.70;;;;;;;3.03;76.60;97997.09;5107846;28;20238;-69
2023/12/23 07:16:39;;;;;;;2.72;1.70;;;;;;;2.97;77.09;97994.75;5107875;28;20040;-69
2023/12/23 07:19:06;;;;;;;2.80;1.80;;;;;;;2.88;76.48;97986.41;5106365;28;20036;-69
2023/12/23 07:21:33;;;;;;;2.80;1.60;;;;;;;2.86;75.87;97995.25;5107856;28;20285;-69
2023/12/23 07:23:59;;;;;;;3.33;1.70;;;;;;;2.86;75.66;97998.72;5107467;28;20044;-69
2023/12/23 07:26:26;;;;;;;2.95;1.90;;;;;;;2.84;75.65;98012.78;5107386;28;20044;-68
2023/12/23 07:28:53;;;;;;;2.90;1.75;;;;;;;2.81;76.16;98019.00;5107386;28;20361;-69
2023/12/23 07:31:21;;;;;;;2.90;1.65;;;;;;;2.72;76.82;97995.88;5107301;28;20040;-69
2023/12/23 07:33:47;;;;;;;2.65;1.50;;;;;;;2.75;76.38;98000.97;5106993;28;20039;-69
2023/12/23 07:36:14;;;;;;;2.60;1.65;;;;;;;2.81;76.02;97997.22;5107250;28;20052;-69
2023/12/23 07:38:40;;;;;;;3.35;1.70;;;;;;;2.79;75.61;98005.13;5107518;28;20089;-69
2023/12/23 07:41:08;;;;;;;2.83;1.80;;;;;;;2.62;75.20;97959.72;5106246;28;20311;-69
2023/12/23 07:43:36;;;;;;;2.90;1.70;;;;;;;2.75;74.74;98000.13;5107352;28;20063;-69
2023/12/23 07:46:03;;;;;;;3.08;1.85;;;;;;;2.77;74.65;97995.66;5105824;28;20086;-69
2023/12/23 07:48:31;;;;;;;2.53;1.60;;;;;;;2.77;74.15;98009.59;5107231;28;20040;-69
2023/12/23 07:50:58;;;;;;;3.58;1.90;;;;;;;2.64;74.10;97952.66;5107101;28;20044;-68
2023/12/23 07:53:24;;;;;;;2.90;2.03;;;;;;;2.82;74.24;98001.53;5106847;28;20141;-69
2023/12/23 07:55:51;;;;;;;2.97;1.90;;;;;;;2.81;74.39;97999.84;5107048;28;20043;-69
2023/12/23 07:58:17;;;;;;;4.25;1.92;;;;;;;2.78;75.07;97995.59;5106176;28;20101;-69
2023/12/23 08:00:45;;;;;;;2.92;2.08;;;;;;;2.85;74.88;98007.47;5106381;28;20048;-69
2023/12/23 08:03:13;;;;;;;2.45;1.60;;;;;;;2.86;75.08;98003.09;5105541;28;20316;-69
2023/12/23 08:05:41;;;;;;;2.80;2.00;;;;;;;2.92;75.09;97997.59;5106487;28;20043;-69
2023/12/23 08:08:09;;;;;;;3.40;1.83;;;;;;;2.97;75.11;98000.00;5106183;28;20055;-69
2023/12/23 08:10:36;;;;;;;2.70;2.08;;;;;;;3.01;74.96;98001.53;5106436;28;20063;-69
2023/12/23 08:13:03;;;;;;;3.20;2.20;;;;;;;2.88;75.45;98002.09;5106480;28;20047;-69
2023/12/23 08:15:30;;;;;;;2.45;1.80;;;;;;;2.94;75.19;98005.34;5106288;28;20237;-69
2023/12/23 08:17:56;;;;;;;3.10;1.80;;;;;;;2.93;74.95;97993.19;5106314;28;20048;-69
2023/12/23 08:20:23;;;;;;;3.08;2.00;;;;;;;2.96;74.36;97978.19;5106109;28;20047;-69
2023/12/23 08:22:51;;;;;;;4.30;1.90;;;;;;;2.73;74.14;97950.47;5105995;28;20036;-69
2023/12/23 08:25:18;;;;;;;2.55;1.70;;;;;;;2.99;73.77;97985.06;5105852;28;20043;-69
2023/12/23 08:27:45;;;;;;;5.90;2.10;;;;;;;3.04;74.14;97989.16;5106335;28;20083;-69
2023/12/23 08:30:12;;;;;;;3.45;2.40;;;;;;;2.98;74.08;98005.16;5105868;28;20035;-69
2023/12/23 08:32:38;;;;;;;4.60;2.72;;;;;;;2.95;73.82;98002.69;5106034;28;20231;-69
2023/12/23 08:35:06;;;;;;;3.72;2.10;;;;;;;2.99;73.41;98008.63;5105781;28;20312;-69
2023/12/23 08:37:32;;;;;;;2.58;1.92;;;;;;;2.93;72.98;98009.75;5105765;28;20044;-69
2023/12/23 08:40:00;;;;;;;2.78;1.90;;;;;;;2.87;72.30;98002.19;5105935;28;20040;-69
2023/12/23 08:42:27;;;;;;;3.35;2.05;;;;;;;2.97;72.37;98007.84;5105648;28;20064;-69
2023/12/23 08:44:54;;;;;;;3.35;1.70;;;;;;;2.97;72.50;97992.97;5106289;28;20043;-69
2023/12/23 08:47:21;;;;;;;3.95;1.70;;;;;;;2.96;71.13;98003.53;5105569;28;20089;-69
2023/12/23 08:49:47;;;;;;;5.53;2.00;;;;;;;2.93;71.57;97999.28;5105671;28;20058;-69
2023/12/23 08:52:14;;;;;;;2.72;1.90;;;;;;;2.96;71.83;98008.75;5105489;28;20048;-69
2023/12/23 08:54:41;;;;;;;2.50;1.83;;;;;;;2.96;71.69;98008.75;5105849;28;20051;-68
2023/12/23 08:57:09;;;;;;;3.13;1.83;;;;;;;2.96;71.36;98008.75;5105448;28;20331;-69
2023/12/23 08:59:35;;;;;;;2.85;2.10;;;;;;;2.96;71.16;98022.69;5105811;28;20203;-69
2023/12/23 09:02:03;;;;;;;3.88;1.85;;;;;;;2.96;70.79;98024.47;5139259;28;20040;-69
2023/12/23 09:04:30;;;;;;;4.22;2.00;;;;;;;2.97;70.99;98024.38;5106024;28;20052;-69
2023/12/23 09:06:58;;;;;;;3.42;1.90;;;;;;;2.93;72.04;98009.75;5105197;28;20040;-69
2023/12/23 09:09:24;;;;;;;3.30;1.98;;;;;;;2.92;72.07;98008.06;5105345;28;20040;-69
2023/12/23 09:11:51;;;;;;;3.08;1.92;;;;;;;2.89;72.64;98008.19;5105842;28;20097;-69
2023/12/23 09:14:19;;;;;;;4.25;2.20;;;;;;;2.87;73.05;98008.25;5105525;28;20096;-68
2023/12/23 09:16:45;;;;;;;3.97;1.80;;;;;;;2.82;73.36;97996.31;5105566;28;20085;-68
2023/12/23 09:19:12;;;;;;;2.80;1.80;;;;;;;2.82;73.55;98005.00;5105342;28;20192;-68
2023/12/23 09:21:39;;;;;;;2.40;1.88;;;;;;;2.86;73.59;98003.09;5105339;28;20040;-68
2023/12/23 09:24:06;;;;;;;6.57;2.67;;;;;;;2.79;73.82;98006.91;5105047;28;20346;-68
2023/12/23 09:26:32;;;;;;;3.75;2.00;;;;;;;2.88;74.21;98030.91;5105526;28;20254;-68
2023/12/23 09:28:59;;;;;;;3.17;2.30;;;;;;;2.73;73.93;97997.56;5105305;28;20069;-68
2023/12/23 09:31:27;;;;;;;4.30;2.60;;;;;;;1.77;74.03;97838.94;5105276;28;20040;-68
2023/12/23 09:33:53;;;;;;;4.22;2.88;;;;;;;2.85;74.50;98025.78;5105484;28;20296;-68
2023/12/23 09:36:20;;;;;;;3.65;2.42;;;;;;;2.90;74.34;98036.06;5105413;28;20044;-68
2023/12/23 09:38:47;;;;;;;2.85;1.98;;;;;;;2.92;74.13;98021.13;5105675;28;20040;-69
2023/12/23 09:41:14;;;;;;;3.85;1.95;;;;;;;2.67;74.50;97990.00;5105101;28;20040;-69
2023/12/23 09:43:41;;;;;;;2.83;2.10;;;;;;;2.87;74.05;98020.50;5105080;28;20054;-69
2023/12/23 09:46:09;;;;;;;3.67;2.03;;;;;;;2.83;74.02;98016.31;5105184;28;20043;-69
2023/12/23 09:48:37;;;;;;;3.83;2.38;;;;;;;2.78;74.06;98005.22;5105602;28;20048;-68
2023/12/23 09:51:04;;;;;;;3.17;2.53;;;;;;;2.72;74.62;98002.88;5105153;28;20182;-69
2023/12/23 09:53:36;;;;;;;3.63;2.30;;;;;;;2.52;74.49;97967.16;5105365;28;20044;-69
2023/12/23 09:56:04;;;;;;;4.22;2.58;;;;;;;2.69;74.49;97982.06;5104415;28;20040;-69
2023/12/23 09:58:31;;;;;;;4.82;2.40;;;;;;;2.36;74.73;97946.06;5105281;28;20047;-69
2023/12/23 10:00:57;;;;;;;5.22;2.92;;;;;;;2.64;74.66;97987.53;5105175;28;20071;-69
2023/12/23 10:03:24;;;;;;;4.68;3.05;;;;;;;2.60;74.89;97982.50;5105290;28;20052;-69
2023/12/23 10:05:54;;;;;;;4.78;3.33;;;;;;;2.54;74.78;97976.63;5108165;28;20040;-68
2023/12/23 10:08:20;;;;;;;5.45;3.25;;;;;;;2.35;75.90;97977.50;5107681;28;20039;-69
2023/12/23 10:10:47;;;;;;;5.35;3.42;;;;;;;2.40;75.89;97975.53;5108833;28;20044;-69
2023/12/23 10:13:14;;;;;;;4.20;3.20;;;;;;;2.30;75.87;97976.84;5108813;28;20118;-69
2023/12/23 10:15:41;;;;;;;5.40;3.67;;;;;;;2.21;75.93;97967.66;5108709;28;20054;-69
2023/12/23 10:18:11;;;;;;;6.57;3.47;;;;;;;2.20;75.95;97968.56;5108625;28;20111;-69
2023/12/23 10:20:38;;;;;;;5.00;3.90;;;;;;;2.13;76.15;97957.53;5107494;28;20096;-69
2023/12/23 10:23:06;;;;;;;5.70;3.40;;;;;;;2.13;76.07;97951.44;5108636;28;20040;-69
2023/12/23 10:25:33;;;;;;;6.65;3.90;;;;;;;1.99;76.69;97953.81;5108314;28;20043;-69
2023/12/23 10:28:00;;;;;;;8.18;4.50;;;;;;;1.92;76.74;97945.38;5108771;28;20093;-69
2023/12/23 10:30:29;;;;;;;6.88;4.05;;;;;;;1.88;76.81;97944.66;5108690;28;20103;-69
2023/12/23 10:33:06;;;;;;;5.78;3.53;;;;;;;1.64;76.97;97897.84;5108074;28;20048;-69
2023/12/23 10:35:37;;;;;;;5.32;3.75;;;;;;;1.45;77.28;97888.13;5108338;28;20044;-69
2023/12/23 10:38:09;;;;;;;4.50;3.42;;;;;;;1.82;77.16;97926.63;5108620;28;20097;-69
2023/12/23 10:40:36;;;;;;;4.32;3.63;;;;;;;1.31;77.38;97858.31;5108160;28;20040;-69
2023/12/23 10:43:04;;;;;;;5.30;3.78;;;;;;;1.74;77.47;97912.22;5108398;28;20035;-68
2023/12/23 10:45:32;;;;;;;5.30;3.55;;;;;;;1.55;77.69;97899.91;5108233;28;20207;-68
2023/12/23 10:47:59;;;;;;;4.82;3.50;;;;;;;1.56;78.53;97911.19;5108227;28;20043;-69
2023/12/23 10:50:26;;;;;;;4.82;3.72;;;;;;;1.57;78.34;97898.06;5108201;28;20044;-69
2023/12/23 10:52:53;;;;;;;6.25;4.63;;;;;;;1.57;78.49;97860.66;5108280;28;20059;-69
2023/12/23 10:55:24;;;;;;;6.47;4.20;;;;;;;1.50;78.95;97857.47;5107761;28;20044;-69
2023/12/23 10:57:52;;;;;;;5.70;4.03;;;;;;;1.61;78.26;97888.38;5106568;28;20056;-69
2023/12/23 11:00:19;;;;;;;5.78;4.00;;;;;;;1.65;78.27;97860.38;5107899;28;20058;-69
2023/12/23 11:02:49;;;;;;;5.93;4.30;;;;;;;1.55;78.67;97826.78;5107580;28;20288;-68
2023/12/23 11:05:19;;;;;;;5.47;4.30;;;;;;;1.57;78.40;97829.31;5107524;28;20044;-69
2023/12/23 11:07:49;;;;;;;5.40;4.10;;;;;;;1.56;78.82;97830.25;5107746;28;20097;-69
2023/12/23 11:10:17;;;;;;;5.40;3.85;;;;;;;1.34;78.82;97766.81;5107644;28;20380;-69
2023/12/23 11:12:45;;;;;;;5.82;3.80;;;;;;;1.43;79.73;97831.69;5107613;28;20062;-69
2023/12/23 11:15:12;;;;;;;5.78;4.13;;;;;;;1.55;78.73;97816.34;5107516;28;20055;-69
2023/12/23 11:17:42;;;;;;;3.83;2.97;;;;;;;1.47;79.52;97792.31;5107648;28;20044;-69
2023/12/23 11:20:43;;;;;;;4.20;3.30;;;;;;;1.46;79.57;97795.84;5106326;28;20071;-68
2023/12/23 11:23:31;;;;;;;6.13;3.22;;;;;;;1.52;78.88;97773.84;5107384;28;20052;-69
2023/12/23 11:25:57;;;;;;;4.45;3.80;;;;;;;1.47;79.42;97771.44;5106980;28;20040;-69
2023/12/23 11:28:28;;;;;;;3.95;2.97;;;;;;;1.54;78.92;97761.56;5107329;28;20052;-69
2023/12/23 11:30:56;;;;;;;4.18;3.60;;;;;;;1.34;80.45;97767.66;5107689;28;20065;-69
2023/12/23 11:33:24;;;;;;;5.22;3.55;;;;;;;0.27;80.91;97588.84;5107012;28;20097;-68
2023/12/23 11:35:52;;;;;;;4.13;3.15;;;;;;;1.39;80.19;97755.25;5107132;28;20048;-68
2023/12/23 11:38:20;;;;;;;3.08;2.53;;;;;;;1.35;80.40;97751.09;5106346;28;20036;-69
2023/12/23 11:40:47;;;;;;;4.75;3.20;;;;;;;1.30;80.33;97728.72;5106896;28;20280;-69
2023/12/23 11:43:15;;;;;;;3.28;2.78;;;;;;;1.34;80.45;97736.34;5106963;28;20044;-69